createdAt,value
2022-08-19T00:02:14.519Z,23.67
2022-08-19T00:04:42.115Z,23.75
2022-08-19T00:07:09.588Z,23.93
2022-08-19T00:09:37.186Z,23.88
2022-08-19T00:12:05.227Z,23.91
2022-08-19T00:14:33.096Z,23.84
2022-08-19T00:17:02.076Z,23.85
2022-08-19T00:19:30.161Z,23.78
2022-08-19T00:21:57.487Z,23.72
2022-08-19T00:24:25.491Z,23.64
2022-08-19T00:26:53.771Z,23.60
2022-08-19T00:29:23.174Z,23.64
2022-08-19T00:31:54.073Z,23.74
2022-08-19T00:34:22.909Z,23.70
2022-08-19T00:36:50.396Z,23.73
2022-08-19T00:39:19.072Z,23.55
2022-08-19T00:41:51.253Z,23.48
2022-08-19T00:44:29.689Z,23.50
2022-08-19T00:47:00.062Z,23.50
2022-08-19T00:49:51.733Z,23.61
2022-08-19T00:52:33.296Z,23.58
2022-08-19T00:55:02.203Z,23.51
2022-08-19T00:57:41.369Z,23.48
2022-08-19T01:00:14.451Z,23.48
2022-08-19T01:02:43.694Z,23.43
2022-08-19T01:05:16.706Z,23.58
2022-08-19T01:07:44.283Z,23.63
2022-08-19T01:10:27.801Z,23.44
2022-08-19T01:12:59.250Z,23.40
2022-08-19T01:15:33.410Z,23.39
2022-08-19T01:18:07.428Z,23.51
2022-08-19T01:20:35.484Z,23.60
2022-08-19T01:23:04.110Z,23.48
2022-08-19T01:25:51.544Z,23.26
2022-08-19T01:28:34.313Z,22.89
2022-08-19T01:31:26.725Z,22.73
2022-08-19T01:33:58.202Z,22.80
2022-08-19T01:36:32.967Z,22.75
2022-08-19T01:39:05.994Z,22.44
2022-08-19T01:41:35.037Z,22.33
2022-08-19T01:44:18.025Z,22.14
2022-08-19T01:46:49.323Z,22.07
2022-08-19T01:49:18.482Z,21.96
2022-08-19T01:51:46.588Z,22.01
2022-08-19T01:54:23.383Z,21.88
2022-08-19T01:57:11.966Z,21.77
2022-08-19T01:59:40.983Z,21.70
2022-08-19T02:02:09.463Z,21.77
2022-08-19T02:04:39.091Z,21.84
2022-08-19T02:07:09.194Z,21.78
2022-08-19T02:09:37.333Z,21.80
2022-08-19T02:12:08.608Z,21.85
2022-08-19T02:14:37.242Z,21.84
2022-08-19T02:17:05.049Z,21.84
2022-08-19T02:19:33.688Z,21.84
2022-08-19T02:22:01.645Z,21.77
2022-08-19T02:24:29.421Z,21.64
2022-08-19T02:26:56.965Z,21.63
2022-08-19T02:29:24.273Z,21.90
2022-08-19T02:31:52.330Z,22.40
2022-08-19T02:34:20.119Z,22.59
2022-08-19T02:36:51.716Z,22.94
2022-08-19T02:39:19.751Z,23.09
2022-08-19T02:41:46.994Z,23.10
2022-08-19T02:44:30.136Z,23.49
2022-08-19T02:46:59.004Z,23.86
2022-08-19T02:49:26.452Z,24.08
2022-08-19T02:51:53.887Z,24.21
2022-08-19T02:54:21.267Z,24.24
2022-08-19T02:56:48.623Z,24.21
2022-08-19T02:59:15.947Z,24.34
2022-08-19T03:01:43.811Z,24.48
2022-08-19T03:04:15.270Z,24.36
2022-08-19T03:06:47.436Z,24.21
2022-08-19T03:09:15.888Z,24.10
2022-08-19T03:11:43.570Z,24.01
2022-08-19T03:14:12.085Z,24.04
2022-08-19T03:16:53.629Z,24.00
2022-08-19T03:19:22.502Z,24.11
2022-08-19T03:21:51.345Z,23.98
2022-08-19T03:24:20.269Z,23.97
2022-08-19T03:26:52.326Z,23.91
2022-08-19T03:29:30.226Z,23.87
2022-08-19T03:32:02.341Z,23.78
2022-08-19T03:34:35.195Z,23.72
2022-08-19T03:37:13.292Z,23.75
2022-08-19T03:39:43.112Z,23.59
2022-08-19T03:42:38.275Z,23.50
2022-08-19T03:44:59.754Z,23.31
2022-08-19T03:47:27.211Z,23.15
2022-08-19T03:49:54.622Z,22.83
2022-08-19T03:52:21.959Z,22.61
2022-08-19T03:54:49.264Z,22.50
2022-08-19T03:57:16.593Z,22.33
2022-08-19T03:59:44.565Z,22.20
2022-08-19T04:02:13.831Z,22.15
2022-08-19T04:04:44.505Z,22.07
2022-08-19T04:07:17.195Z,21.95
2022-08-19T04:09:45.025Z,21.91
2022-08-19T04:12:12.368Z,21.96
2022-08-19T04:14:40.473Z,21.92
2022-08-19T04:17:08.081Z,21.88
2022-08-19T04:19:36.994Z,21.94
2022-08-19T04:22:05.577Z,22.17
2022-08-19T04:24:33.474Z,22.11
2022-08-19T04:27:02.945Z,22.18
2022-08-19T04:29:31.317Z,22.22
2022-08-19T04:32:00.027Z,22.33
2022-08-19T04:34:37.429Z,22.71
2022-08-19T04:37:25.773Z,22.98
2022-08-19T04:40:12.387Z,23.40
2022-08-19T04:42:39.867Z,23.61
2022-08-19T04:45:15.179Z,23.67
2022-08-19T04:47:49.324Z,23.78
2022-08-19T04:50:29.612Z,24.04
2022-08-19T04:52:57.507Z,24.17
2022-08-19T04:55:28.555Z,24.13
2022-08-19T04:57:56.324Z,23.95
2022-08-19T05:00:24.508Z,24.09
2022-08-19T05:02:52.268Z,24.20
2022-08-19T05:05:20.907Z,24.42
2022-08-19T05:07:48.655Z,24.38
2022-08-19T05:10:16.620Z,24.62
2022-08-19T05:12:44.175Z,24.80
2022-08-19T05:15:12.281Z,25.15
2022-08-19T05:17:59.536Z,25.66
2022-08-19T05:20:45.551Z,26.07
2022-08-19T05:23:22.074Z,26.11
2022-08-19T05:25:52.753Z,26.52
2022-08-19T05:28:21.864Z,27.06
2022-08-19T05:30:51.799Z,27.50
2022-08-19T05:33:19.962Z,27.70
2022-08-19T05:35:47.276Z,27.62
2022-08-19T05:38:14.644Z,27.75
2022-08-19T05:40:42.553Z,27.79
2022-08-19T05:43:10.222Z,27.72
2022-08-19T05:45:43.066Z,27.62
2022-08-19T05:48:12.939Z,27.73
2022-08-19T05:50:42.435Z,27.53
2022-08-19T05:53:10.016Z,27.55
2022-08-19T05:55:39.509Z,28.15
2022-08-19T05:58:08.698Z,28.32
2022-08-19T06:00:38.448Z,28.18
2022-08-19T06:03:11.765Z,28.43
2022-08-19T06:05:46.187Z,28.40
2022-08-19T06:08:19.730Z,28.45
2022-08-19T06:10:47.107Z,29.45
2022-08-19T06:13:14.370Z,30.21
2022-08-19T06:15:44.964Z,31.11
2022-08-19T06:18:12.727Z,31.73
2022-08-19T06:20:55.532Z,32.40
2022-08-19T06:23:24.134Z,32.60
2022-08-19T06:25:51.860Z,32.88
2022-08-19T06:28:19.373Z,33.60
2022-08-19T06:30:46.723Z,34.15
2022-08-19T06:33:14.039Z,34.28
2022-08-19T06:35:42.728Z,34.60
2022-08-19T06:38:10.644Z,34.72
2022-08-19T06:40:39.444Z,35.07
2022-08-19T06:43:07.678Z,35.16
2022-08-19T06:45:39.798Z,36.15
2022-08-19T06:48:08.194Z,36.60
2022-08-19T06:50:36.752Z,37.07
2022-08-19T06:53:07.110Z,37.50
2022-08-19T06:55:34.382Z,38.20
2022-08-19T06:58:05.578Z,38.51
2022-08-19T07:00:33.892Z,38.03
2022-08-19T07:03:04.798Z,37.67
2022-08-19T07:05:45.931Z,36.30
2022-08-19T07:08:14.896Z,35.45
2022-08-19T07:10:47.751Z,34.21
2022-08-19T07:13:15.409Z,33.60
2022-08-19T07:15:43.396Z,33.14
2022-08-19T07:18:11.641Z,32.50
2022-08-19T07:20:41.810Z,31.87
2022-08-19T07:23:11.199Z,31.77
2022-08-19T07:25:44.478Z,31.35
2022-08-19T07:28:23.915Z,30.95
2022-08-19T07:30:53.308Z,30.69
2022-08-19T07:33:21.747Z,30.33
2022-08-19T07:35:50.202Z,30.26
2022-08-19T07:38:18.211Z,29.82
2022-08-19T07:40:47.410Z,29.72
2022-08-19T07:43:17.815Z,29.61
2022-08-19T07:45:46.494Z,29.40
2022-08-19T07:48:14.073Z,29.12
2022-08-19T07:50:41.824Z,28.92
2022-08-19T07:53:09.184Z,28.91
2022-08-19T07:55:42.204Z,29.22
2022-08-19T07:58:17.520Z,31.07
2022-08-19T08:00:46.848Z,32.95
2022-08-19T08:03:16.821Z,34.06
2022-08-19T08:06:02.745Z,35.09
2022-08-19T08:08:50.146Z,35.11
2022-08-19T08:11:23.885Z,35.43
2022-08-19T08:14:01.409Z,35.54
2022-08-19T08:16:47.032Z,33.90
2022-08-19T08:19:22.930Z,33.19
2022-08-19T08:21:56.426Z,32.56
2022-08-19T08:24:28.458Z,31.99
2022-08-19T08:26:57.903Z,31.43
2022-08-19T08:29:34.911Z,30.96
2022-08-19T08:32:03.045Z,30.99
2022-08-19T08:34:30.411Z,30.84
2022-08-19T08:36:57.763Z,31.13
2022-08-19T08:39:25.089Z,31.03
2022-08-19T08:42:37.963Z,30.71
2022-08-19T08:45:16.836Z,30.43
2022-08-19T08:47:49.782Z,30.36
2022-08-19T08:50:30.534Z,30.36
2022-08-19T08:52:59.793Z,32.27
2022-08-19T08:55:36.920Z,35.22
2022-08-19T08:58:25.436Z,34.91
2022-08-19T09:00:53.015Z,34.59
2022-08-19T09:03:31.567Z,35.54
2022-08-19T09:06:30.231Z,35.14
2022-08-19T09:09:19.925Z,35.26
2022-08-19T09:12:07.677Z,33.39
2022-08-19T09:14:53.228Z,32.98
2022-08-19T09:17:36.201Z,33.81
2022-08-19T09:20:21.111Z,35.55
2022-08-19T09:22:50.269Z,35.95
2022-08-19T09:25:27.130Z,35.09
2022-08-19T09:28:02.405Z,34.17
2022-08-19T09:30:40.395Z,34.46
2022-08-19T09:33:08.799Z,35.28
2022-08-19T09:35:53.246Z,36.61
2022-08-19T09:38:22.421Z,37.93
2022-08-19T09:40:51.112Z,39.02
2022-08-19T09:43:33.041Z,40.32
2022-08-19T09:46:03.744Z,40.67
2022-08-19T09:48:31.060Z,40.52
2022-08-19T09:51:11.844Z,40.41
2022-08-19T09:53:40.140Z,38.88
2022-08-19T09:56:08.440Z,39.79
2022-08-19T09:58:37.927Z,40.67
2022-08-19T10:01:07.379Z,41.61
2022-08-19T10:03:37.355Z,42.62
2022-08-19T10:06:15.083Z,41.63
2022-08-19T10:08:50.070Z,38.83
2022-08-19T10:11:28.197Z,37.76
2022-08-19T10:14:07.727Z,38.85
2022-08-19T10:16:39.676Z,40.54
2022-08-19T10:19:07.342Z,40.58
2022-08-19T10:21:35.470Z,41.06
2022-08-19T10:24:06.337Z,41.55
2022-08-19T10:26:38.810Z,41.22
2022-08-19T10:29:09.229Z,40.74
2022-08-19T10:32:00.664Z,40.37
2022-08-19T10:34:28.013Z,39.47
2022-08-19T10:37:00.539Z,38.68
2022-08-19T10:39:43.336Z,38.55
2022-08-19T10:42:11.822Z,37.63
2022-08-19T10:44:39.333Z,36.92
2022-08-19T10:47:17.262Z,37.58
2022-08-19T10:50:11.833Z,39.06
2022-08-19T10:52:49.811Z,39.84
2022-08-19T10:55:41.471Z,39.93
2022-08-19T10:58:18.468Z,38.10
2022-08-19T11:00:54.581Z,37.30
2022-08-19T11:03:22.693Z,37.70
2022-08-19T11:06:07.749Z,39.61
2022-08-19T11:08:38.618Z,40.26
2022-08-19T11:11:08.249Z,40.65
2022-08-19T11:13:39.933Z,40.97
2022-08-19T11:16:15.850Z,41.39
2022-08-19T11:18:49.327Z,41.77
2022-08-19T11:21:33.779Z,41.61
2022-08-19T11:24:06.818Z,41.08
2022-08-19T11:26:35.458Z,41.05
2022-08-19T11:29:04.981Z,40.76
2022-08-19T11:31:37.213Z,39.87
2022-08-19T11:34:08.682Z,38.52
2022-08-19T11:36:39.715Z,38.75
2022-08-19T11:39:08.996Z,39.20
2022-08-19T11:41:36.747Z,39.52
2022-08-19T11:44:05.628Z,40.24
2022-08-19T11:46:32.984Z,39.80
2022-08-19T11:49:01.706Z,39.33
2022-08-19T11:51:30.390Z,39.68
2022-08-19T11:54:00.095Z,39.79
2022-08-19T11:56:29.104Z,40.31
2022-08-19T11:58:59.837Z,39.71
2022-08-19T12:01:28.109Z,39.05
2022-08-19T12:03:58.297Z,37.87
2022-08-19T12:06:30.915Z,37.72
2022-08-19T12:09:01.248Z,37.74
2022-08-19T12:11:28.933Z,37.15
2022-08-19T12:13:58.782Z,36.43
2022-08-19T12:16:29.694Z,36.14
2022-08-19T12:18:58.663Z,35.78
2022-08-19T12:21:31.315Z,35.73
2022-08-19T12:24:01.333Z,35.48
2022-08-19T12:26:30.525Z,35.33
2022-08-19T12:28:59.994Z,34.97
2022-08-19T12:31:29.704Z,34.80
2022-08-19T12:33:57.565Z,34.84
2022-08-19T12:36:25.926Z,35.08
2022-08-19T12:38:53.854Z,35.45
2022-08-19T12:41:23.371Z,35.64
2022-08-19T12:43:51.697Z,35.94
2022-08-19T12:46:22.293Z,36.20
2022-08-19T12:48:55.287Z,36.44
2022-08-19T12:51:22.778Z,36.33
2022-08-19T12:53:50.914Z,36.29
2022-08-19T12:56:23.041Z,36.27
2022-08-19T12:58:52.849Z,36.78
2022-08-19T13:01:22.866Z,37.09
2022-08-19T13:03:53.563Z,37.23
2022-08-19T13:06:21.444Z,36.99
2022-08-19T13:08:49.151Z,36.76
2022-08-19T13:11:21.620Z,37.06
2022-08-19T13:13:52.031Z,36.80
2022-08-19T13:16:21.359Z,36.56
2022-08-19T13:18:48.989Z,36.49
2022-08-19T13:21:16.511Z,36.68
2022-08-19T13:23:43.982Z,36.45
2022-08-19T13:26:13.819Z,36.32
2022-08-19T13:29:01.644Z,36.30
2022-08-19T13:31:50.237Z,36.08
2022-08-19T13:34:22.120Z,35.93
2022-08-19T13:36:49.477Z,36.00
2022-08-19T13:39:16.767Z,35.92
2022-08-19T13:41:49.137Z,35.96
2022-08-19T13:44:21.305Z,35.80
2022-08-19T13:46:54.078Z,35.98
2022-08-19T13:49:21.673Z,36.01
2022-08-19T13:51:49.115Z,35.83
2022-08-19T13:54:16.472Z,35.61
2022-08-19T13:56:46.559Z,35.11
2022-08-19T13:59:14.458Z,35.47
2022-08-19T14:01:42.636Z,35.54
2022-08-19T14:04:10.521Z,35.38
2022-08-19T14:06:38.082Z,35.41
2022-08-19T14:09:06.749Z,35.22
2022-08-19T14:11:34.174Z,35.00
2022-08-19T14:14:01.484Z,34.87
2022-08-19T14:16:28.835Z,34.36
2022-08-19T14:18:56.230Z,33.95
2022-08-19T14:21:26.366Z,33.23
2022-08-19T14:23:54.533Z,33.22
2022-08-19T14:26:24.137Z,33.07
2022-08-19T14:28:53.311Z,32.68
2022-08-19T14:31:22.418Z,32.48
2022-08-19T14:33:51.530Z,32.39
2022-08-19T14:36:21.365Z,32.45
2022-08-19T14:38:49.960Z,32.70
2022-08-19T14:41:24.679Z,32.72
2022-08-19T14:43:54.572Z,32.69
2022-08-19T14:46:26.254Z,32.63
2022-08-19T14:48:56.639Z,32.53
2022-08-19T14:51:26.070Z,32.32
2022-08-19T14:53:53.696Z,32.23
2022-08-19T14:56:25.341Z,32.06
2022-08-19T14:58:53.456Z,31.97
2022-08-19T15:01:23.400Z,32.03
2022-08-19T15:03:54.067Z,32.10
2022-08-19T15:06:24.007Z,32.09
2022-08-19T15:08:52.703Z,32.17
2022-08-19T15:11:25.108Z,32.28
2022-08-19T15:13:52.843Z,32.17
2022-08-19T15:16:22.460Z,31.78
2022-08-19T15:18:58.807Z,31.40
2022-08-19T15:21:27.984Z,31.04
2022-08-19T15:23:58.215Z,30.76
2022-08-19T15:26:28.612Z,30.56
2022-08-19T15:28:56.371Z,30.45
2022-08-19T15:31:25.631Z,30.23
2022-08-19T15:34:00.308Z,30.00
2022-08-19T15:36:28.521Z,30.00
2022-08-19T15:38:57.724Z,29.88
2022-08-19T15:41:30.775Z,29.79
2022-08-19T15:44:10.197Z,29.69
2022-08-19T15:46:41.537Z,29.57
2022-08-19T15:49:10.924Z,29.49
2022-08-19T15:51:40.785Z,29.37
2022-08-19T15:54:10.192Z,29.27
2022-08-19T15:56:57.692Z,29.14
2022-08-19T15:59:47.249Z,29.05
2022-08-19T16:02:34.404Z,28.88
2022-08-19T16:05:21.010Z,28.99
2022-08-19T16:07:49.347Z,29.03
2022-08-19T16:10:26.193Z,28.89
2022-08-19T16:12:57.771Z,28.43
2022-08-19T16:15:28.732Z,28.44
2022-08-19T16:17:58.175Z,28.48
2022-08-19T16:20:28.304Z,28.20
2022-08-19T16:22:58.450Z,27.87
2022-08-19T16:25:30.072Z,27.66
2022-08-19T16:28:07.572Z,27.46
2022-08-19T16:30:39.185Z,27.27
2022-08-19T16:33:07.812Z,26.85
2022-08-19T16:35:35.768Z,26.75
2022-08-19T16:38:03.285Z,26.51
2022-08-19T16:40:30.731Z,26.29
2022-08-19T16:42:58.084Z,25.96
2022-08-19T16:45:25.591Z,25.81
2022-08-19T16:47:53.010Z,25.64
2022-08-19T16:50:39.326Z,25.72
2022-08-19T16:53:09.798Z,25.41
2022-08-19T16:55:37.804Z,25.37
2022-08-19T16:58:05.145Z,25.32
2022-08-19T17:00:32.652Z,25.17
2022-08-19T17:03:14.731Z,25.19
2022-08-19T17:05:48.309Z,25.12
2022-08-19T17:08:18.638Z,25.03
2022-08-19T17:11:16.430Z,25.00
2022-08-19T17:13:35.325Z,25.01
2022-08-19T17:16:03.363Z,24.90
2022-08-19T17:18:32.692Z,24.79
2022-08-19T17:21:01.265Z,24.80
2022-08-19T17:23:43.241Z,24.75
2022-08-19T17:26:18.286Z,24.59
2022-08-19T17:28:51.685Z,24.51
2022-08-19T17:31:23.195Z,24.53
2022-08-19T17:33:52.156Z,24.62
2022-08-19T17:36:23.737Z,24.64
2022-08-19T17:38:52.975Z,24.61
2022-08-19T17:41:20.255Z,24.50
2022-08-19T17:43:47.603Z,24.49
2022-08-19T17:46:18.429Z,24.50
2022-08-19T17:48:52.058Z,24.46
2022-08-19T17:51:34.113Z,24.53
2022-08-19T17:54:02.489Z,24.41
2022-08-19T17:56:29.776Z,24.46
2022-08-19T17:58:59.911Z,24.45
2022-08-19T18:01:48.390Z,24.47
2022-08-19T18:04:18.933Z,24.39
2022-08-19T18:06:53.297Z,24.45
2022-08-19T18:09:27.047Z,24.43
2022-08-19T18:11:57.308Z,24.40
2022-08-19T18:14:34.410Z,24.32
2022-08-19T18:17:18.163Z,24.27
2022-08-19T18:19:47.765Z,24.08
2022-08-19T18:22:37.017Z,23.91
2022-08-19T18:25:17.532Z,23.90
2022-08-19T18:27:46.142Z,23.83
2022-08-19T18:30:15.297Z,23.83
2022-08-19T18:32:44.114Z,23.81
2022-08-19T18:35:20.213Z,23.80
2022-08-19T18:37:47.791Z,23.86
2022-08-19T18:40:39.271Z,23.72
2022-08-19T18:43:25.937Z,23.16
2022-08-19T18:46:12.036Z,22.78
2022-08-19T18:48:58.399Z,22.75
2022-08-19T18:51:29.735Z,22.70
2022-08-19T18:53:58.973Z,22.34
2022-08-19T18:56:29.327Z,22.20
2022-08-19T18:58:56.798Z,22.39
2022-08-19T19:01:37.524Z,22.39
2022-08-19T19:04:12.068Z,22.34
2022-08-19T19:06:42.702Z,22.28
2022-08-19T19:09:15.477Z,22.18
2022-08-19T19:11:47.066Z,22.12
2022-08-19T19:14:39.065Z,22.12
2022-08-19T19:17:15.204Z,22.14
2022-08-19T19:19:44.144Z,22.09
2022-08-19T19:22:17.091Z,21.99
2022-08-19T19:24:44.599Z,22.02
2022-08-19T19:27:14.614Z,22.04
2022-08-19T19:29:45.019Z,22.05
2022-08-19T19:32:27.161Z,22.09
2022-08-19T19:34:54.751Z,22.12
2022-08-19T19:37:22.702Z,22.17
2022-08-19T19:39:50.129Z,22.15
2022-08-19T19:42:22.781Z,22.16
2022-08-19T19:44:55.415Z,22.15
2022-08-19T19:47:24.499Z,22.16
2022-08-19T19:50:20.117Z,22.11
2022-08-19T19:52:41.380Z,22.05
2022-08-19T19:55:15.633Z,22.07
2022-08-19T19:57:42.946Z,22.06
2022-08-19T20:00:13.162Z,22.10
2022-08-19T20:02:40.458Z,22.09
2022-08-19T20:05:08.368Z,22.10
2022-08-19T20:07:54.709Z,22.06
2022-08-19T20:10:22.401Z,22.10
2022-08-19T20:12:52.037Z,22.15
2022-08-19T20:15:19.733Z,22.18
2022-08-19T20:17:47.968Z,22.23
2022-08-19T20:20:18.131Z,22.26
2022-08-19T20:22:47.567Z,22.31
2022-08-19T20:25:22.140Z,22.26
2022-08-19T20:27:50.559Z,22.32
2022-08-19T20:30:22.087Z,22.31
2022-08-19T20:32:50.872Z,22.30
2022-08-19T20:35:21.759Z,22.30
2022-08-19T20:37:52.873Z,22.32
2022-08-19T20:40:23.525Z,22.28
2022-08-19T20:42:51.019Z,22.27
2022-08-19T20:45:32.178Z,22.14
2022-08-19T20:48:03.138Z,22.33
2022-08-19T20:50:33.174Z,22.47
2022-08-19T20:53:01.197Z,22.53
2022-08-19T20:55:30.479Z,22.46
2022-08-19T20:57:58.816Z,22.39
2022-08-19T21:00:26.583Z,22.41
2022-08-19T21:02:53.908Z,22.43
2022-08-19T21:05:21.348Z,22.59
2022-08-19T21:07:48.618Z,22.56
2022-08-19T21:10:16.186Z,22.52
2022-08-19T21:12:44.497Z,22.66
2022-08-19T21:15:12.486Z,22.78
2022-08-19T21:17:40.204Z,22.79
2022-08-19T21:20:09.841Z,22.65
2022-08-19T21:22:37.315Z,22.37
2022-08-19T21:25:06.678Z,22.14
2022-08-19T21:27:34.293Z,21.90
2022-08-19T21:30:02.382Z,21.53
2022-08-19T21:32:30.182Z,21.49
2022-08-19T21:34:57.880Z,21.31
2022-08-19T21:37:26.167Z,21.28
2022-08-19T21:39:56.879Z,21.19
2022-08-19T21:42:24.694Z,21.02
2022-08-19T21:44:52.471Z,20.91
2022-08-19T21:47:19.929Z,20.71
2022-08-19T21:49:47.213Z,20.83
2022-08-19T21:52:21.167Z,20.80
2022-08-19T21:54:48.744Z,20.81
2022-08-19T21:57:16.046Z,20.81
2022-08-19T21:59:44.085Z,20.70
2022-08-19T22:02:22.314Z,20.64
2022-08-19T22:04:52.045Z,20.66
2022-08-19T22:07:22.090Z,20.62
2022-08-19T22:09:51.062Z,20.75
2022-08-19T22:12:47.356Z,20.76
2022-08-19T22:15:23.408Z,20.65
2022-08-19T22:17:50.932Z,20.44
2022-08-19T22:20:24.168Z,20.45
2022-08-19T22:23:00.446Z,20.65
2022-08-19T22:25:41.094Z,20.75
2022-08-19T22:28:12.214Z,20.73
2022-08-19T22:30:42.994Z,20.75
2022-08-19T22:33:15.990Z,20.77
2022-08-19T22:35:46.014Z,20.85
2022-08-19T22:38:14.665Z,20.91
2022-08-19T22:40:47.664Z,20.88
2022-08-19T22:43:30.134Z,20.86
2022-08-19T22:45:59.412Z,20.87
2022-08-19T22:48:31.427Z,20.81
2022-08-19T22:51:18.808Z,20.72
2022-08-19T22:53:47.227Z,20.73
2022-08-19T22:56:18.576Z,20.68
2022-08-19T22:58:50.071Z,20.75
2022-08-19T23:01:29.943Z,20.71
2022-08-19T23:03:59.355Z,20.73
2022-08-19T23:06:33.195Z,20.75
2022-08-19T23:09:04.660Z,20.73
2022-08-19T23:11:38.051Z,20.68
2022-08-19T23:14:09.698Z,20.67
2022-08-19T23:16:37.075Z,20.56
2022-08-19T23:19:04.845Z,20.49
2022-08-19T23:21:32.150Z,20.46
2022-08-19T23:23:59.825Z,20.39
2022-08-19T23:26:27.233Z,20.39
2022-08-19T23:29:13.282Z,20.28
2022-08-19T23:31:40.627Z,20.22
2022-08-19T23:34:07.960Z,20.14
2022-08-19T23:36:35.269Z,20.14
2022-08-19T23:39:03.104Z,20.16
2022-08-19T23:41:30.462Z,20.07
2022-08-19T23:44:00.446Z,20.04
2022-08-19T23:46:28.264Z,20.12
2022-08-19T23:48:57.046Z,20.40
2022-08-19T23:51:26.803Z,20.47
2022-08-19T23:53:54.412Z,20.56
2022-08-19T23:56:21.850Z,20.67
2022-08-19T23:58:49.337Z,20.33
